createdAt,value
2019-05-17T00:00:47.474Z,36.00
2019-05-17T00:03:17.588Z,39.33
2019-05-17T00:05:46.877Z,34.87
2019-05-17T00:08:20.447Z,39.27
2019-05-17T00:10:47.268Z,40.07
2019-05-17T00:13:17.386Z,38.93
2019-05-17T00:15:47.414Z,35.80
2019-05-17T00:18:17.226Z,40.37
2019-05-17T00:20:47.024Z,38.90
2019-05-17T00:23:17.356Z,40.20
2019-05-17T00:25:47.071Z,41.30
2019-05-17T00:28:16.552Z,37.50
2019-05-17T00:30:46.619Z,48.97
2019-05-17T00:33:16.947Z,44.50
2019-05-17T00:35:47.063Z,42.20
2019-05-17T00:38:16.877Z,40.83
2019-05-17T00:40:47.153Z,43.30
2019-05-17T00:43:17.055Z,48.47
2019-05-17T00:45:46.841Z,48.93
2019-05-17T00:48:17.178Z,46.10
2019-05-17T00:50:53.217Z,48.90
2019-05-17T00:53:17.791Z,47.87
2019-05-17T00:55:47.153Z,48.93
2019-05-17T00:58:17.429Z,42.80
2019-05-17T01:00:47.893Z,44.70
2019-05-17T01:03:17.488Z,49.40
2019-05-17T01:05:47.348Z,51.60
2019-05-17T01:08:17.424Z,50.57
2019-05-17T01:10:47.497Z,47.47
2019-05-17T01:13:17.423Z,50.23
2019-05-17T01:15:47.421Z,46.67
2019-05-17T01:18:16.933Z,45.67
2019-05-17T01:20:47.466Z,46.47
2019-05-17T01:23:17.137Z,48.97
2019-05-17T01:25:48.116Z,47.93
2019-05-17T01:28:17.705Z,47.23
2019-05-17T01:30:47.877Z,51.30
2019-05-17T01:33:17.358Z,45.47
2019-05-17T01:35:47.116Z,50.30
2019-05-17T01:38:17.768Z,49.03
2019-05-17T01:40:47.249Z,49.90
2019-05-17T01:43:16.764Z,52.73
2019-05-17T01:45:48.014Z,42.03
2019-05-17T01:48:17.146Z,45.17
2019-05-17T01:50:46.585Z,49.43
2019-05-17T01:53:16.642Z,52.03
2019-05-17T01:55:46.572Z,40.77
2019-05-17T01:58:16.448Z,47.13
2019-05-17T02:00:46.528Z,44.63
2019-05-17T02:03:17.336Z,43.90
2019-05-17T02:05:49.764Z,44.60
2019-05-17T02:08:19.111Z,41.90
2019-05-17T02:10:48.401Z,40.33
2019-05-17T02:13:17.716Z,42.90
2019-05-17T02:15:47.370Z,44.87
2019-05-17T02:18:17.372Z,42.00
2019-05-17T02:20:46.930Z,40.00
2019-05-17T02:23:17.377Z,51.23
2019-05-17T02:25:47.282Z,41.03
2019-05-17T02:28:16.671Z,39.90
2019-05-17T02:30:46.097Z,42.30
2019-05-17T02:33:15.504Z,45.27
2019-05-17T02:35:45.239Z,38.60
2019-05-17T02:38:14.621Z,44.43
2019-05-17T02:40:43.917Z,42.60
2019-05-17T02:43:13.442Z,41.13
2019-05-17T02:45:43.648Z,41.87
2019-05-17T02:48:13.581Z,42.07
2019-05-17T02:50:47.399Z,43.93
2019-05-17T02:53:14.877Z,44.70
2019-05-17T02:55:44.214Z,41.30
2019-05-17T02:58:13.601Z,43.73
2019-05-17T03:00:44.235Z,45.30
2019-05-17T03:03:13.894Z,40.67
2019-05-17T03:05:43.360Z,41.23
2019-05-17T03:08:12.707Z,45.83
2019-05-17T03:10:43.317Z,39.00
2019-05-17T03:13:17.036Z,45.40
2019-05-17T03:15:43.829Z,42.07
2019-05-17T03:18:13.530Z,43.10
2019-05-17T03:20:43.324Z,33.50
2019-05-17T03:23:12.878Z,34.37
2019-05-17T03:25:43.936Z,35.73
2019-05-17T03:28:13.626Z,42.13
2019-05-17T03:30:47.018Z,34.00
2019-05-17T03:33:16.748Z,35.83
2019-05-17T03:35:46.548Z,37.00
2019-05-17T03:38:16.065Z,40.37
2019-05-17T03:41:07.312Z,39.37
2019-05-17T03:43:16.493Z,37.90
2019-05-17T03:45:45.850Z,35.73
2019-05-17T03:48:15.453Z,35.97
2019-05-17T03:50:44.829Z,31.30
2019-05-17T03:53:14.168Z,33.97
2019-05-17T03:55:43.584Z,27.23
2019-05-17T03:58:13.002Z,29.10
2019-05-17T04:00:42.977Z,29.40
2019-05-17T04:03:13.604Z,27.57
2019-05-17T04:05:43.214Z,29.67
2019-05-17T04:08:13.937Z,25.53
2019-05-17T04:10:43.598Z,24.43
2019-05-17T04:13:13.149Z,26.60
2019-05-17T04:15:43.311Z,26.40
2019-05-17T04:18:13.451Z,22.07
2019-05-17T04:20:43.566Z,27.93
2019-05-17T04:23:13.150Z,26.73
2019-05-17T04:25:43.504Z,25.87
2019-05-17T04:28:13.854Z,28.80
2019-05-17T04:30:43.619Z,28.77
2019-05-17T04:33:13.496Z,24.80
2019-05-17T04:35:43.318Z,25.57
2019-05-17T04:38:12.950Z,26.57
2019-05-17T04:40:43.139Z,28.17
2019-05-17T04:43:13.577Z,28.60
2019-05-17T04:45:43.625Z,23.63
2019-05-17T04:48:13.418Z,29.13
2019-05-17T04:50:43.090Z,24.43
2019-05-17T04:53:13.239Z,28.40
2019-05-17T04:55:43.318Z,30.80
2019-05-17T04:58:13.756Z,30.07
2019-05-17T05:00:43.733Z,25.40
2019-05-17T05:03:13.055Z,27.87
2019-05-17T05:05:42.912Z,24.30
2019-05-17T05:08:14.545Z,26.70
2019-05-17T05:10:43.908Z,27.13
2019-05-17T05:13:13.488Z,24.07
2019-05-17T05:15:44.728Z,25.77
2019-05-17T05:18:14.241Z,20.47
2019-05-17T05:20:44.032Z,25.43
2019-05-17T05:23:13.922Z,25.20
2019-05-17T05:25:43.461Z,20.40
2019-05-17T05:28:12.886Z,24.93
2019-05-17T05:30:42.485Z,22.10
2019-05-17T05:33:12.930Z,23.27
2019-05-17T05:35:42.845Z,26.77
2019-05-17T05:38:13.440Z,18.63
2019-05-17T05:40:43.491Z,20.13
2019-05-17T05:43:12.795Z,18.63
2019-05-17T05:45:42.124Z,17.83
2019-05-17T05:48:12.840Z,20.57
2019-05-17T05:50:43.348Z,21.47
2019-05-17T05:53:13.308Z,20.43
2019-05-17T05:55:43.324Z,19.80
2019-05-17T05:58:12.893Z,19.60
2019-05-17T06:00:42.938Z,19.37
2019-05-17T06:03:12.540Z,15.47
2019-05-17T06:05:42.499Z,16.10
2019-05-17T06:08:12.493Z,22.10
2019-05-17T06:10:42.528Z,18.30
2019-05-17T06:13:13.164Z,18.77
2019-05-17T06:15:43.204Z,18.90
2019-05-17T06:18:12.746Z,18.10
2019-05-17T06:20:42.185Z,20.50
2019-05-17T06:23:12.282Z,16.73
2019-05-17T06:25:43.642Z,19.60
2019-05-17T06:28:12.996Z,20.70
2019-05-17T06:30:43.225Z,18.07
2019-05-17T06:33:26.664Z,17.87
2019-05-17T06:35:43.821Z,17.53
2019-05-17T06:38:13.200Z,18.20
2019-05-17T06:40:42.521Z,14.03
2019-05-17T06:43:12.885Z,15.63
2019-05-17T06:45:42.725Z,14.93
2019-05-17T06:48:12.144Z,13.50
2019-05-17T06:50:43.067Z,14.13
2019-05-17T06:53:12.740Z,16.17
2019-05-17T06:55:42.699Z,16.30
2019-05-17T06:58:12.353Z,13.60
2019-05-17T07:00:41.727Z,13.00
2019-05-17T07:03:11.008Z,13.20
2019-05-17T07:05:41.994Z,14.27
2019-05-17T07:08:11.728Z,13.10
2019-05-17T07:10:41.036Z,12.13
2019-05-17T07:13:10.812Z,13.60
2019-05-17T07:15:47.337Z,14.20
2019-05-17T07:18:11.398Z,13.87
2019-05-17T07:20:40.707Z,11.90
2019-05-17T07:23:10.810Z,12.63
2019-05-17T07:25:40.440Z,12.13
2019-05-17T07:28:10.252Z,10.80
2019-05-17T07:30:40.249Z,9.27
2019-05-17T07:33:10.237Z,8.33
2019-05-17T07:35:39.984Z,10.80
2019-05-17T07:38:10.534Z,9.10
2019-05-17T07:40:40.252Z,10.47
2019-05-17T07:43:14.372Z,10.30
2019-05-17T07:45:40.766Z,8.40
2019-05-17T07:48:10.214Z,9.60
2019-05-17T07:50:39.978Z,8.17
2019-05-17T07:53:10.246Z,9.63
2019-05-17T07:55:40.214Z,9.27
2019-05-17T07:58:10.190Z,8.50
2019-05-17T08:00:40.211Z,6.50
2019-05-17T08:03:12.975Z,13.73
2019-05-17T08:05:40.862Z,8.40
2019-05-17T08:08:10.365Z,7.83
2019-05-17T08:10:40.979Z,7.50
2019-05-17T08:13:25.896Z,7.80
2019-05-17T08:15:42.162Z,7.73
2019-05-17T08:18:11.459Z,6.07
2019-05-17T08:20:40.763Z,4.90
2019-05-17T08:23:10.813Z,6.73
2019-05-17T08:25:52.439Z,6.20
2019-05-17T08:28:11.335Z,6.47
2019-05-17T08:30:41.206Z,5.93
2019-05-17T08:33:11.290Z,6.97
2019-05-17T08:35:40.719Z,6.13
2019-05-17T08:38:10.597Z,7.10
2019-05-17T08:40:40.747Z,5.37
2019-05-17T08:43:10.260Z,6.13
2019-05-17T08:45:40.661Z,6.80
2019-05-17T08:48:10.279Z,4.63
2019-05-17T08:50:40.398Z,5.07
2019-05-17T08:53:10.595Z,4.97
2019-05-17T08:55:41.021Z,6.30
2019-05-17T08:58:10.754Z,5.53
2019-05-17T09:00:40.814Z,4.83
2019-05-17T09:03:10.920Z,4.07
2019-05-17T09:05:41.754Z,3.70
2019-05-17T09:08:11.561Z,4.03
2019-05-17T09:10:41.180Z,4.67
2019-05-17T09:13:14.406Z,4.00
2019-05-17T09:15:41.669Z,4.23
2019-05-17T09:18:10.985Z,3.40
2019-05-17T09:20:40.866Z,4.77
2019-05-17T09:23:10.315Z,4.13
2019-05-17T09:25:39.977Z,3.93
2019-05-17T09:28:10.249Z,5.37
2019-05-17T09:30:40.423Z,4.47
2019-05-17T09:33:11.268Z,5.70
2019-05-17T09:35:41.292Z,4.43
2019-05-17T09:38:10.728Z,5.53
2019-05-17T09:40:40.469Z,5.20
2019-05-17T09:43:10.463Z,4.00
2019-05-17T09:45:40.594Z,4.83
2019-05-17T09:48:10.571Z,4.20
2019-05-17T09:50:40.230Z,4.53
2019-05-17T09:53:10.906Z,3.73
2019-05-17T09:55:40.463Z,3.10
2019-05-17T09:58:10.261Z,3.40
2019-05-17T10:00:39.563Z,4.00
2019-05-17T10:03:09.909Z,3.73
2019-05-17T10:05:40.593Z,4.80
2019-05-17T10:08:11.056Z,4.80
2019-05-17T10:10:40.553Z,4.20
2019-05-17T10:13:10.068Z,4.10
2019-05-17T10:15:40.861Z,4.10
2019-05-17T10:18:11.250Z,5.00
2019-05-17T10:20:41.016Z,3.57
2019-05-17T10:23:10.793Z,5.87
2019-05-17T10:25:40.459Z,4.03
2019-05-17T10:28:10.269Z,4.83
2019-05-17T10:30:40.127Z,3.30
2019-05-17T10:33:10.107Z,4.60
2019-05-17T10:35:40.734Z,5.57
2019-05-17T10:38:10.615Z,5.70
2019-05-17T10:40:41.023Z,3.80
2019-05-17T10:43:10.638Z,5.03
2019-05-17T10:45:40.328Z,3.63
2019-05-17T10:48:10.379Z,4.63
2019-05-17T10:50:40.729Z,8.70
2019-05-17T10:53:10.460Z,5.43
2019-05-17T10:55:39.970Z,3.57
2019-05-17T10:58:10.139Z,4.00
2019-05-17T11:00:41.367Z,4.20
2019-05-17T11:03:11.140Z,5.70
2019-05-17T11:05:40.576Z,3.90
2019-05-17T11:08:10.800Z,4.23
2019-05-17T11:10:41.960Z,5.90
2019-05-17T11:13:11.310Z,3.67
2019-05-17T11:15:40.692Z,3.63
2019-05-17T11:18:10.043Z,5.27
2019-05-17T11:20:39.341Z,4.90
2019-05-17T11:23:08.654Z,5.63
2019-05-17T11:25:45.082Z,3.77
2019-05-17T11:28:10.555Z,5.33
2019-05-17T11:30:39.883Z,5.80
2019-05-17T11:33:09.262Z,5.30
2019-05-17T11:35:38.545Z,6.60
2019-05-17T11:38:07.895Z,8.60
2019-05-17T11:40:37.136Z,4.87
2019-05-17T11:43:06.849Z,4.80
2019-05-17T11:45:36.206Z,5.53
2019-05-17T11:48:05.545Z,4.23
2019-05-17T11:50:34.875Z,5.10
2019-05-17T11:53:04.267Z,6.70
2019-05-17T11:55:33.734Z,11.80
2019-05-17T11:58:03.087Z,6.63
2019-05-17T12:00:32.539Z,9.10
2019-05-17T12:03:01.906Z,5.60
2019-05-17T12:05:31.373Z,9.13
2019-05-17T12:08:00.772Z,9.30
2019-05-17T12:10:30.174Z,8.40
2019-05-17T12:12:59.516Z,7.03
2019-05-17T12:15:43.561Z,6.63
2019-05-17T12:17:59.945Z,6.13
2019-05-17T12:20:29.268Z,5.97
2019-05-17T12:22:58.671Z,6.97
2019-05-17T12:25:28.048Z,8.20
2019-05-17T12:27:57.344Z,6.63
2019-05-17T12:30:26.734Z,6.33
2019-05-17T12:32:56.713Z,7.83
2019-05-17T12:35:26.096Z,11.63
2019-05-17T12:37:55.383Z,8.57
2019-05-17T12:40:25.033Z,9.83
2019-05-17T12:42:54.351Z,8.57
2019-05-17T12:45:23.680Z,9.57
2019-05-17T12:47:53.028Z,12.77
2019-05-17T12:50:22.529Z,9.50
2019-05-17T12:52:51.825Z,8.77
2019-05-17T12:55:21.245Z,11.43
2019-05-17T12:57:50.664Z,10.17
2019-05-17T13:00:20.306Z,10.07
2019-05-17T13:02:49.638Z,11.80
2019-05-17T13:05:19.021Z,10.50
2019-05-17T13:07:48.352Z,11.83
2019-05-17T13:10:17.688Z,11.80
2019-05-17T13:12:46.980Z,13.27
2019-05-17T13:15:17.548Z,15.27
2019-05-17T13:17:49.414Z,16.17
2019-05-17T13:20:18.905Z,14.10
2019-05-17T13:22:48.446Z,17.67
2019-05-17T13:25:19.547Z,13.83
2019-05-17T13:27:48.883Z,14.10
2019-05-17T13:30:18.801Z,12.80
2019-05-17T13:32:48.190Z,13.40
2019-05-17T13:35:17.806Z,12.67
2019-05-17T13:37:47.495Z,13.97
2019-05-17T13:40:17.279Z,14.50
2019-05-17T13:42:46.601Z,13.90
2019-05-17T13:45:17.318Z,16.23
2019-05-17T13:47:46.638Z,14.23
2019-05-17T13:50:16.168Z,12.93
2019-05-17T13:52:45.457Z,15.30
2019-05-17T13:55:14.770Z,15.33
2019-05-17T13:57:44.174Z,12.93
2019-05-17T14:00:18.696Z,15.80
2019-05-17T14:02:48.079Z,15.50
2019-05-17T14:05:17.521Z,19.80
2019-05-17T14:07:46.830Z,17.17
2019-05-17T14:10:26.710Z,22.07
2019-05-17T14:12:47.354Z,16.30
2019-05-17T14:15:17.417Z,15.53
2019-05-17T14:17:46.757Z,14.80
2019-05-17T14:20:16.534Z,15.40
2019-05-17T14:22:46.179Z,17.10
2019-05-17T14:25:16.252Z,17.73
2019-05-17T14:27:48.711Z,16.13
2019-05-17T14:30:18.608Z,17.57
2019-05-17T14:32:47.932Z,16.17
2019-05-17T14:35:17.600Z,20.30
2019-05-17T14:37:46.899Z,19.67
2019-05-17T14:40:17.774Z,23.27
2019-05-17T14:42:47.072Z,19.67
2019-05-17T14:45:16.564Z,19.93
2019-05-17T14:47:45.974Z,18.60
2019-05-17T14:50:15.609Z,21.83
2019-05-17T14:52:44.911Z,20.37
2019-05-17T14:55:14.348Z,23.63
2019-05-17T14:57:43.831Z,22.87
2019-05-17T15:00:13.681Z,24.43
2019-05-17T15:02:42.956Z,21.60
2019-05-17T15:05:14.488Z,22.00
2019-05-17T15:07:43.896Z,21.43
2019-05-17T15:10:14.054Z,20.60
2019-05-17T15:12:43.432Z,21.97
2019-05-17T15:15:13.056Z,23.93
2019-05-17T15:17:42.426Z,21.40
2019-05-17T15:20:11.999Z,23.13
2019-05-17T15:22:41.332Z,25.87
2019-05-17T15:25:11.230Z,21.20
2019-05-17T15:27:40.528Z,23.43
2019-05-17T15:30:10.144Z,25.00
2019-05-17T15:32:39.438Z,28.10
2019-05-17T15:35:09.053Z,20.20
2019-05-17T15:37:38.379Z,22.67
2019-05-17T15:40:07.922Z,23.63
2019-05-17T15:42:44.404Z,25.53
2019-05-17T15:45:08.592Z,21.83
2019-05-17T15:47:37.935Z,22.23
2019-05-17T15:50:08.793Z,23.27
2019-05-17T15:52:38.175Z,21.10
2019-05-17T15:55:07.595Z,24.87
2019-05-17T15:57:36.961Z,20.67
2019-05-17T16:00:06.708Z,21.60
2019-05-17T16:02:36.139Z,30.67
2019-05-17T16:05:06.350Z,23.10
2019-05-17T16:07:35.956Z,24.07
2019-05-17T16:10:06.133Z,25.17
2019-05-17T16:12:35.441Z,22.63
2019-05-17T16:15:05.568Z,21.80
2019-05-17T16:17:34.945Z,25.00
2019-05-17T16:20:04.384Z,23.77
2019-05-17T16:22:34.102Z,22.37
2019-05-17T16:25:03.373Z,22.70
2019-05-17T16:27:32.704Z,25.23
2019-05-17T16:30:02.017Z,28.03
2019-05-17T16:32:31.317Z,25.80
2019-05-17T16:35:00.640Z,24.13
2019-05-17T16:37:29.928Z,21.00
2019-05-17T16:39:59.561Z,28.53
2019-05-17T16:42:28.846Z,21.33
2019-05-17T16:44:58.333Z,26.33
2019-05-17T16:47:28.102Z,25.60
2019-05-17T16:49:57.896Z,24.80
2019-05-17T16:52:27.254Z,25.63
2019-05-17T16:54:56.592Z,24.50
2019-05-17T16:57:25.893Z,26.60
2019-05-17T17:00:04.840Z,19.53
2019-05-17T17:02:37.299Z,29.30
2019-05-17T17:05:07.044Z,31.87
2019-05-17T17:07:39.201Z,24.27
2019-05-17T17:10:12.895Z,24.70
2019-05-17T17:12:45.396Z,26.03
2019-05-17T17:15:15.088Z,24.70
2019-05-17T17:17:44.401Z,26.70
2019-05-17T17:20:14.625Z,28.33
2019-05-17T17:22:44.318Z,24.13
2019-05-17T17:25:13.759Z,28.27
2019-05-17T17:27:43.077Z,28.10
2019-05-17T17:30:13.135Z,28.47
2019-05-17T17:32:42.461Z,26.63
2019-05-17T17:35:12.109Z,29.93
2019-05-17T17:37:41.388Z,25.10
2019-05-17T17:40:10.822Z,27.33
2019-05-17T17:42:40.473Z,26.50
2019-05-17T17:45:17.001Z,32.33
2019-05-17T17:47:46.440Z,29.60
2019-05-17T17:50:16.354Z,29.03
2019-05-17T17:52:49.262Z,28.77
2019-05-17T17:55:18.551Z,27.97
2019-05-17T17:57:48.031Z,29.83
2019-05-17T18:00:20.137Z,32.17
2019-05-17T18:02:49.590Z,30.60
2019-05-17T18:05:18.910Z,31.97
2019-05-17T18:07:48.310Z,28.20
2019-05-17T18:10:33.622Z,29.80
2019-05-17T18:13:02.908Z,31.87
2019-05-17T18:15:37.573Z,35.00
2019-05-17T18:18:06.889Z,32.47
2019-05-17T18:20:36.459Z,32.03
2019-05-17T18:23:06.490Z,31.03
2019-05-17T18:25:36.130Z,32.20
2019-05-17T18:28:06.657Z,32.47
2019-05-17T18:30:39.946Z,33.00
2019-05-17T18:33:09.233Z,37.00
2019-05-17T18:35:38.533Z,34.43
2019-05-17T18:38:07.943Z,30.90
2019-05-17T18:40:40.001Z,31.00
2019-05-17T18:43:09.358Z,33.67
2019-05-17T18:45:38.748Z,36.30
2019-05-17T18:48:08.061Z,37.27
2019-05-17T18:50:37.546Z,38.23
2019-05-17T18:53:13.183Z,36.90
2019-05-17T18:55:38.203Z,38.33
2019-05-17T18:58:07.622Z,39.17
2019-05-17T19:00:36.953Z,37.60
2019-05-17T19:03:06.356Z,36.03
2019-05-17T19:05:35.630Z,34.73
2019-05-17T19:08:05.253Z,33.90
2019-05-17T19:10:34.681Z,38.10
2019-05-17T19:13:04.260Z,38.77
2019-05-17T19:15:33.573Z,34.63
2019-05-17T19:18:02.908Z,34.13
2019-05-17T19:20:32.396Z,44.70
2019-05-17T19:23:01.870Z,46.40
2019-05-17T19:25:31.280Z,44.23
2019-05-17T19:28:01.171Z,39.13
2019-05-17T19:30:30.493Z,50.33
2019-05-17T19:33:00.160Z,48.10
2019-05-17T19:35:29.555Z,46.63
2019-05-17T19:37:58.953Z,53.33
2019-05-17T19:40:28.285Z,56.57
2019-05-17T19:42:57.668Z,51.27
2019-05-17T19:45:26.955Z,53.73
2019-05-17T19:47:56.600Z,51.57
2019-05-17T19:50:26.289Z,55.40
2019-05-17T19:52:55.652Z,52.97
2019-05-17T19:55:25.810Z,52.53
2019-05-17T19:57:55.160Z,54.27
2019-05-17T20:00:24.680Z,50.80
2019-05-17T20:02:53.999Z,54.63
2019-05-17T20:05:23.372Z,51.50
2019-05-17T20:07:52.713Z,53.27
2019-05-17T20:10:22.700Z,53.57
2019-05-17T20:12:52.075Z,56.87
2019-05-17T20:15:33.498Z,52.27
2019-05-17T20:17:52.793Z,56.03
2019-05-17T20:20:22.105Z,55.67
2019-05-17T20:22:51.404Z,54.40
2019-05-17T20:25:20.998Z,51.90
2019-05-17T20:27:50.305Z,55.60
2019-05-17T20:30:20.201Z,56.63
2019-05-17T20:32:49.512Z,60.63
2019-05-17T20:35:19.371Z,52.57
2019-05-17T20:37:49.314Z,56.93
2019-05-17T20:40:18.792Z,54.80
2019-05-17T20:42:48.262Z,52.60
2019-05-17T20:45:32.058Z,51.63
2019-05-17T20:47:49.725Z,54.73
2019-05-17T20:50:19.240Z,51.70
2019-05-17T20:52:48.624Z,56.63
2019-05-17T20:55:17.913Z,62.40
2019-05-17T20:57:47.665Z,56.67
2019-05-17T21:00:17.313Z,51.93
2019-05-17T21:02:46.773Z,58.83
2019-05-17T21:05:17.771Z,51.83
2019-05-17T21:07:47.633Z,57.97
2019-05-17T21:10:17.048Z,60.03
2019-05-17T21:12:46.343Z,66.17
2019-05-17T21:15:15.648Z,65.47
2019-05-17T21:17:45.024Z,56.20
2019-05-17T21:20:16.385Z,61.90
2019-05-17T21:22:45.805Z,67.27
2019-05-17T21:25:15.242Z,73.07
2019-05-17T21:27:44.926Z,63.37
2019-05-17T21:30:15.348Z,71.53
2019-05-17T21:32:44.653Z,68.77
2019-05-17T21:35:33.897Z,59.20
2019-05-17T21:38:03.177Z,70.97
2019-05-17T21:40:32.517Z,67.13
2019-05-17T21:43:01.875Z,62.77
2019-05-17T21:45:31.153Z,59.13
2019-05-17T21:48:00.470Z,69.03
2019-05-17T21:50:29.783Z,65.33
2019-05-17T21:52:59.100Z,66.37
2019-05-17T21:55:28.720Z,66.57
2019-05-17T21:57:58.088Z,70.87
2019-05-17T22:01:21.242Z,66.07
2019-05-17T22:03:50.545Z,56.77
2019-05-17T22:06:19.937Z,62.20
2019-05-17T22:08:49.458Z,59.10
2019-05-17T22:11:18.840Z,66.13
2019-05-17T22:13:48.212Z,67.33
2019-05-17T22:16:20.061Z,73.13
2019-05-17T22:18:48.849Z,68.73
2019-05-17T22:21:18.183Z,69.43
2019-05-17T22:23:47.463Z,73.83
2019-05-17T22:26:17.065Z,78.17
2019-05-17T22:28:46.397Z,64.90
2019-05-17T22:31:15.699Z,54.90
2019-05-17T22:33:45.416Z,65.77
2019-05-17T22:36:14.728Z,60.77
2019-05-17T22:38:44.093Z,64.23
2019-05-17T22:41:13.797Z,59.10
2019-05-17T22:43:42.992Z,61.83
2019-05-17T22:46:12.383Z,58.77
2019-05-17T22:48:41.680Z,55.73
2019-05-17T22:51:10.958Z,55.00
2019-05-17T22:53:40.281Z,59.70
2019-05-17T22:56:09.592Z,61.63
2019-05-17T22:58:38.906Z,54.10
2019-05-17T23:01:08.704Z,55.00
2019-05-17T23:03:38.000Z,57.53
2019-05-17T23:06:07.348Z,59.73
2019-05-17T23:08:36.690Z,64.90
2019-05-17T23:11:05.963Z,67.13
2019-05-17T23:13:35.326Z,79.57
2019-05-17T23:16:07.020Z,82.57
2019-05-17T23:18:36.437Z,69.23
2019-05-17T23:21:05.854Z,79.80
2019-05-17T23:23:35.181Z,70.83
2019-05-17T23:26:04.463Z,101.37
2019-05-17T23:28:33.789Z,75.47
2019-05-17T23:31:03.568Z,81.40
2019-05-17T23:33:32.885Z,87.17
2019-05-17T23:36:02.247Z,87.57
2019-05-17T23:38:31.551Z,74.80
2019-05-17T23:41:01.297Z,63.70
2019-05-17T23:43:31.505Z,71.63
2019-05-17T23:46:00.805Z,86.30
2019-05-17T23:48:30.117Z,71.30
2019-05-17T23:50:59.433Z,79.77
2019-05-17T23:53:28.811Z,76.53
2019-05-17T23:55:58.067Z,90.00
2019-05-17T23:58:27.456Z,92.43
